Huvudsida
METAR-TAF:

METAR-TAF

Flygplatser :

Maputo, Moçambique

latitud: 25-55S, longitud: 032-34E, höjd: 39 m

Aktuellt väderrapport

Denna rapport gjordes för 17 minuter sedan, klockan 12:00 UTC
Temperatur 34°C
Fuktighet 34%
Tryck 1010 hPa
Sikt 10 km eller mer
Få moln på en höjd av 2500 ft

METAR: FQMA 221200Z /////KT 9999 FEW025 34/16 Q1010 NOSIG

Tid: 14:17 (12:17 UTC)

Väderprognos

Denna rapport gjordes för 2 timmar och 17 minuter sedan, klockan 10:00 UTC
Prognos gäller från 22 kl. 12 UTC till 23 kl. 18 UTC
Vind 11 kt från nord
Sikt 10 km eller mer
Få moln på en höjd av 2000 ft
Temporärt
från 22 kl. 18 UTC till 22 kl. 20 UTC
Vind 8 kt från nord/nordost
Blir
från 23 kl. 04 UTC till 23 kl. 06 UTC
Vind 6 kt från sydväst
Blir
från 23 kl. 12 UTC till 23 kl. 14 UTC
Vind 10 kt från syd/sydost

TAF: FQMA 221000Z 2212/2318 36011KT 9999 FEW020 TX34/2213Z TN19/2302Z TEMPO 2218/2220 02008KT BECMG 2304/2306 22006KT BECMG 2312/2314 16010KT

Aktuella väderrapporter och prognoser från 4000 flygplatser (METAR- och TAF-rapporter).

De tillgängliga stationerna syns som gula och röda prickar på kartan.

För musen över prickarna för att se namnen på stationerna.

Klicka sedan för att få väderrapporter och prognoser.

För att ändra kartan: Klicka på de gröna knapparna med ett svart kors på för att zooma in; den gröna knappen med ett streck på för att zooma ut; eller på de gröna pilarna för angränsande kartor.


METAR-TAF: